Tiempo atmosférico en la estación meteorológica de Cañizares, Cuenca (940 m.)



Fecha
DESCASC
Temp. máxima en grados centígrados (hora)
DESCASC
Temp. mínima en grados centígrados (hora)
DESCASC
Temp. media en grados centígrados
DESCASC
Racha de viento máxima en m/sg (hora)
DESCASC
Velocidad máxima media en intervalos de 10 minutos(hora)
DESCASC
Precipitaciones diarias en mm
DESCASC
Precipitaciones de 00:00 a 06:00 en mm
DESCASC
Precipitaciones de 06:00 a 12:00 en mm
DESCASC
Precipitaciones de 12:00 a 18:00 en mm
DESCASC
Precipitaciones de 18:00 a 24:00 en mm
DESCASC
10-11-2019 8.6 (14:30) 0.7 (00:00) 4.7 -- (--) -- (--) 0.5 0.2 0.1 0.1 0.1
09-11-2019 10.8 (13:10) -0.5 (-00:0) 5.2 -- (--) -- (--) 1 0 0.9 0.1 0
08-11-2019 10.2 (14:30) 0.9 (00:00) 5.5 -- (--) -- (--) 0.1 0 0.1 0 0
07-11-2019 12 (13:50) 4.7 (00:00) 8.3 -- (--) -- (--) 3.4 1.6 1.8 0 0
06-11-2019 14.2 (14:00) 2.7 (00:00) 8.4 -- (--) -- (--) 0 0 0 0 0
05-11-2019 11.3 (15:00) 4.5 (00:00) 7.9 -- (--) -- (--) 4.3 3.3 0.3 0.6 0.1
04-11-2019 14.6 (12:00) 9.8 (00:00) 12.2 -- (--) -- (--) 4.4 0.5 0.2 0 3.7
03-11-2019 15.8 (14:30) 8 (00:00) 11.9 -- (--) -- (--) 5.7 1.8 3.8 0.1 0
02-11-2019 16.6 (14:40) 13 (00:00) 14.8 -- (--) -- (--) 3.9 0.9 1.5 0.7 0.8
01-11-2019 18.5 (15:20) 10.3 (00:00) 14.4 -- (--) -- (--) 3 0.3 0.1 2.1 0.5
31-10-2019 19.4 (16:40) 10.2 (23:59) 14.8 -- (--) -- (--) 0.1 0.1 0 0 0
30-10-2019 19.4 (11:30) 6 (00:00) 12.7 -- (--) -- (--) 0 0 0 0 0
29-10-2019 20.7 (15:10) 5.2 (00:00) 13 -- (--) -- (--) 0.1 0 0.1 0 0
28-10-2019 22.6 (14:50) 7.5 (00:00) 15.1 -- (--) -- (--) 0 0 0 0 0
27-10-2019 23.6 (15:10) 2.9 (00:00) 13.3 -- (--) -- (--) 0 0 0 0 0
26-10-2019 23.1 (16:10) 2.9 (00:00) 13 -- (--) -- (--) 0.1 0 0 0.1 0
25-10-2019 23.1 (16:20) 2.9 (00:00) 13 -- (--) -- (--) 0.1 0 0.1 0 0
24-10-2019 16.9 (16:20) 6.8 (00:00) 11.8 -- (--) -- (--) 0.6 0 0.6 0 0
23-10-2019 9.9 (15:40) 5.3 (00:00) 7.6 -- (--) -- (--) 2.9 1.3 0.6 0.1 0.9
22-10-2019 8.8 (09:50) 3.2 (00:00) 6 -- (--) -- (--) 12.9 0.1 1.3 11.4 0.1
21-10-2019 16.1 (16:00) 3.8 (00:00) 10 -- (--) -- (--) 0.1 0.1 0 0 0
20-10-2019 13.3 (14:20) 8 (00:00) 10.7 -- (--) -- (--) 13.8 11.9 0.1 0.7 1.1
19-10-2019 18.1 (14:50) 9.4 (00:00) 13.8 -- (--) -- (--) 13.2 0.1 0 0.2 12.9
18-10-2019 19.5 (16:10) 10.3 (00:00) 14.9 -- (--) -- (--) 1.9 0.8 0.8 0.3 0
17-10-2019 15.9 (17:10) 2 (00:00) 8.9 -- (--) -- (--) 0.1 0 0 0 0.1
16-10-2019 19.8 (16:30) 2.3 (00:00) 11 -- (--) -- (--) 0.1 0 0 0.1 0
15-10-2019 18.2 (16:00) 2.7 (00:00) 10.5 -- (--) -- (--) 0.1 0.1 0 0 0
14-10-2019 19.5 (15:10) 8.3 (00:00) 13.9 -- (--) -- (--) 5 0 0.4 3.9 0.7

Gráficas

Temp. máximas Temp. mínimas Temp. medias Precipitaciones Rachas de viento máximas Velocidades máximas media en intervalos de 10 minutos

Datos horarios

Fecha y hora oficial Temperatura (ºC) Velocidad del viento (km/h) Dirección del viento Racha (km/h) Dirección de racha Precipitación (mm) Presión (hPa) Tendencia (hPa) Humedad (%)
2019-11-12 23:00:00 6.1 0 Calma 3 Este 0.4 904.8 -0.7 99
2019-11-12 22:00:00 6.1 -- -- 3 Oeste 0.1 905.3 -0.2 99
2019-11-12 21:00:00 6.5 -- -- 3 Sudeste 0 905.3 -0.2 99
2019-11-12 20:00:00 6.2 -- -- -- -- 0 905.5 -0.3 99
2019-11-12 19:00:00 6.4 -- -- 3 Sudeste 0 905.5 -0.6 99
2019-11-12 18:00:00 7.7 -- -- 4 Oeste 0 905.5 -0.7 95
2019-11-12 17:00:00 10.9 -- -- 13 Oeste 0 905.8 -0.9 75
2019-11-12 16:00:00 10.1 -- -- 19 Noroeste 0 906.1 -1.6 77
2019-11-12 15:00:00 11.2 -- -- 18 Noroeste 0 906.2 -2.5 74
2019-11-12 14:00:00 10.6 -- -- 17 Noroeste 0 906.7 -2.4 78
2019-11-12 13:00:00 9.7 -- -- 19 Noroeste 0 907.7 -1.5 87
2019-11-12 12:00:00 8.3 -- -- 13 Noroeste 0 908.7 -0.7 91
2019-11-12 11:00:00 7.8 -- -- 12 Oeste 0.6 909.1 0.1 98
2019-11-12 10:00:00 5.3 -- -- 5 Nordeste 0 909.2 0.5 99
2019-11-12 09:00:00 0.5 -- -- 0 Calma 0 909.4 0.1 99
2019-11-12 08:00:00 -0.7 -- -- -- -- 0 909 -0.4 99
2019-11-12 07:00:00 -0.4 -- -- -- -- 0 908.7 -0.5 99
2019-11-12 06:00:00 0.2 -- -- 0 Calma 0 909.3 0.1 99
2019-11-12 05:00:00 0.7 -- -- 2 Norte 0 909.4 -0.4 99
2019-11-12 04:00:00 0.6 -- -- 0 Calma 0 909.2 -0.6 99
2019-11-12 03:00:00 0.2 -- -- -- -- 0 909.2 -1 99
2019-11-12 02:00:00 -0.1 -- -- -- -- 0 909.8 -0.4 99
2019-11-12 01:00:00 0.4 -- -- -- -- 0 909.8 -0.3 99
2019-11-12 00:00:00 1.2 -- -- 2 Oeste 0 910.2 0.4 99
2019-11-11 23:00:00 2 -- -- 4 Noroeste 0 910.2 1.3 99
2019-11-11 22:00:00 3.4 -- -- 6 Noroeste 0 910.1 1.2 99
2019-11-11 21:00:00 5.6 -- -- 10 Oeste 0 909.8 1.2 99
2019-11-11 20:00:00 7.6 -- -- 7 Noroeste 0.1 908.9 0.9 99
2019-11-11 19:00:00 8.3 -- -- 8 Norte 0 908.9 1.2 99
2019-11-11 18:00:00 9.3 -- -- 8 Noroeste 0 908.6 0.7 99
2019-11-11 17:00:00 9.9 -- -- 9 Noroeste 0 908 -0.5 99
2019-11-11 16:00:00 9.3 -- -- 4 Sudoeste 0 907.7 -1.4 99
2019-11-11 15:00:00 8.8 -- -- 4 Sudoeste 0 907.9 -1.4 99
2019-11-11 14:00:00 7.4 -- -- 6 Norte 0 908.5 -1.5 99
2019-11-11 13:00:00 7.7 -- -- 9 Noroeste 0 909.1 -0.4 99
2019-11-11 12:00:00 7.2 -- -- 5 Nordeste 0 909.3 -0.7 99
2019-11-11 11:00:00 5.8 -- -- 3 Noroeste 0 910 0.1 99
2019-11-11 10:00:00 4.1 -- -- -- -- 0 909.5 -0.4 99
2019-11-11 09:00:00 2.7 -- -- -- -- 0 910 0.2 99
2019-11-11 08:00:00 1.9 -- -- -- -- 0 909.9 -0.3 99
2019-11-11 07:00:00 1.4 -- -- -- -- 0 909.9 0.2 99
2019-11-11 06:00:00 1.1 -- -- -- -- 0 909.8 0 99
2019-11-11 05:00:00 1.1 -- -- -- -- 0 910.2 -0.4 99
2019-11-11 04:00:00 0.7 -- -- -- -- 0 909.7 -0.8 99
2019-11-11 03:00:00 0.4 -- -- -- -- 0 909.8 -0.7 99
2019-11-11 02:00:00 1.1 -- -- 3 Sudeste 0 910.6 0.1 99
2019-11-11 01:00:00 1.5 -- -- 3 Sudeste 0 910.5 0.7 99
2019-11-11 00:00:00 2.6 -- -- 9 Noroeste 0.1 910.5 1 99
2019-11-10 23:00:00 3 -- -- 4 Noroeste 0 910.5 0.9 99
2019-11-10 22:00:00 2 -- -- 3 Noroeste 0 909.8 0.7 99
2019-11-10 21:00:00 1.8 -- -- 3 Noroeste 0 909.5 1.3 99
2019-11-10 20:00:00 3 -- -- 2 Noroeste 0 909.6 1.8 99
2019-11-10 19:00:00 3.7 -- -- 3 Noroeste 0 909.1 1.6 99
2019-11-10 18:00:00 5.5 -- -- 10 Noroeste 0 908.2 1 99
2019-11-10 17:00:00 6.5 -- -- 19 Oeste 0 907.8 0.5 99
2019-11-10 16:00:00 6.5 -- -- 16 Sudoeste 0.1 907.5 -0.7 95
2019-11-10 15:00:00 7.7 -- -- 16 Norte 0 907.2 -1.9 87
2019-11-10 14:00:00 7.6 -- -- 21 Noroeste 0 907.3 -2 92
2019-11-10 13:00:00 7.3 -- -- 10 Noroeste 0 908.2 -1.1 89
2019-11-10 12:00:00 6.4 -- -- 13 Nordeste 0 909.1 -0.1 92
2019-11-10 11:00:00 6 -- -- 8 Noroeste 0 909.3 0.3 99
2019-11-10 10:00:00 3.3 -- -- 4 Sudeste 0 909.3 0.8 99
2019-11-10 09:00:00 1.6 -- -- 2 Sudeste 0.1 909.2 0.9 99
2019-11-10 08:00:00 0.8 -- -- 2 Sudeste 0 909 1 99
2019-11-10 07:00:00 1.2 -- -- 0 Calma 0 908.5 0.4 99
2019-11-10 06:00:00 2.1 -- -- 2 Norte 0 908.3 0.4 99
2019-11-10 05:00:00 3.3 -- -- 5 Norte 0.1 908 0.4 99
2019-11-10 04:00:00 4.5 -- -- 5 Sudeste 0 908.1 0.1 99
2019-11-10 03:00:00 4.9 -- -- 30 Noroeste 0 907.9 -0.4 99
2019-11-10 02:00:00 6.7 -- -- 6 Norte 0.1 907.6 -1.2 99
2019-11-10 01:00:00 6.6 -- -- 4 Oeste 0 908 -0.6 99
2019-11-10 00:00:00 6.7 -- -- 4 Nordeste 0 908.3 -1.1 99
2019-11-09 23:00:00 6.5 -- -- 5 Noroeste 0 908.8 -1.4 99
2019-11-09 22:00:00 6.4 -- -- 4 Sudeste 0 908.6 -2 99
2019-11-09 21:00:00 6.5 -- -- 4 Noroeste 0 909.4 -1.1 99
2019-11-09 20:00:00 6.5 -- -- 5 Sudeste 0 910.2 -0.4 99
2019-11-09 19:00:00 7.3 -- -- 13 Sur 0 910.6 0.1 96
2019-11-09 18:00:00 8.4 -- -- 6 Este 0 910.5 -0.8 92
2019-11-09 17:00:00 8.8 -- -- 10 Este 0 910.6 -0.8 88
2019-11-09 16:00:00 9.4 -- -- 9 Sudoeste 0 910.5 -1.5 85
2019-11-09 15:00:00 9.1 -- -- 11 Sudeste 0 911.3 -1.5 83
2019-11-09 14:00:00 10.1 -- -- 10 Sudeste 0 911.4 -1.8 80
2019-11-09 13:00:00 10.4 -- -- 10 Sur 0.1 912 -1.6 79
2019-11-09 12:00:00 10.4 -- -- 10 Oeste 0.2 912.8 -0.8 81
2019-11-09 11:00:00 10.1 -- -- 7 Norte 0.7 913.2 -0.2 87
2019-11-09 10:00:00 3.7 -- -- 2 Nordeste 0 913.6 0.3 99
2019-11-09 09:00:00 0.3 -- -- 0 Calma 0 913.6 0.6 99
2019-11-09 08:00:00 0 -- -- -- -- 0 913.4 0.6 99
2019-11-09 07:00:00 0.2 -- -- 0 Calma 0 913.3 0.7 99
2019-11-09 06:00:00 0.2 -- -- -- -- 0 913 0.5 99
2019-11-09 05:00:00 -0.4 -- -- -- -- 0 912.8 0.1 99
2019-11-09 04:00:00 -0.2 -- -- -- -- 0 912.6 0 99
2019-11-09 03:00:00 0.1 -- -- 0 Calma 0 912.5 0.1 99
2019-11-09 02:00:00 0.3 -- -- -- -- 0 912.7 0.8 99
2019-11-09 01:00:00 1.4 -- -- -- -- 0 912.6 1.2 99
2019-11-09 00:00:00 2.5 -- -- -- -- 0 912.4 1.1 99
2019-11-08 23:00:00 3.4 -- -- 2 Noroeste 0 911.9 1.2 99
2019-11-08 22:00:00 4.9 -- -- 2 Nordeste 0 911.4 1.3 99
2019-11-08 21:00:00 6 -- -- 3 Sudeste 0 911.3 2 99
2019-11-08 20:00:00 7.6 -- -- 6 Este 0 910.7 2 89
2019-11-08 19:00:00 7.8 -- -- 4 Oeste 0 910.1 2.2 84
2019-11-08 18:00:00 8.1 -- -- 6 Norte 0 909.3 2 80
2019-11-08 17:00:00 8.6 -- -- 11 Noroeste 0 908.7 1.6 77
2019-11-08 16:00:00 9.1 -- -- 12 Noroeste 0 907.9 0.5 75
2019-11-08 15:00:00 9.7 -- -- 13 Noroeste 0 907.3 -0.4 74
2019-11-08 14:00:00 8.9 -- -- 13 Sudeste 0 907.1 -0.6 82
2019-11-08 13:00:00 7.6 -- -- 16 Noroeste 0 907.4 0.2 90
2019-11-08 12:00:00 7.2 -- -- 8 Noroeste 0 907.7 0.9 96
2019-11-08 11:00:00 5.6 -- -- 9 Oeste 0.1 907.7 1.4 99
2019-11-08 10:00:00 5.6 -- -- 7 Oeste 0 907.2 1.7 99
2019-11-08 09:00:00 3 -- -- 2 Oeste 0 906.8 1.6 99
2019-11-08 08:00:00 1.7 -- -- 3 Sudeste 0 906.3 1.5 99
2019-11-08 07:00:00 1.3 -- -- 3 Nordeste 0 905.5 0.8 99
2019-11-08 06:00:00 2.6 -- -- 3 Nordeste 0 905.2 0.6 99
2019-11-08 05:00:00 3.3 -- -- 6 Sudeste 0 904.8 0.3 99
2019-11-08 04:00:00 3.9 -- -- 4 Noroeste 0 904.7 0.2 99
2019-11-08 03:00:00 4.2 -- -- 8 Sudeste 0 904.6 0 99
2019-11-08 02:00:00 4.3 -- -- 3 Noroeste 0 904.5 -0.1 99
2019-11-08 01:00:00 4 -- -- 4 Sur 0 904.5 -0.1 99
2019-11-08 00:00:00 4.9 -- -- 13 Noroeste 0 904.6 0 99
2019-11-07 23:00:00 6.2 -- -- 7 Oeste 0 904.6 -0.2 99
2019-11-07 22:00:00 6 -- -- 4 Oeste 0 904.6 0.4 99
2019-11-07 21:00:00 6.5 -- -- 15 Sudeste 0 904.6 0.6 99
2019-11-07 20:00:00 7 -- -- 20 Noroeste 0 904.8 0.8 94
2019-11-07 19:00:00 8 -- -- 5 Nordeste 0 904.2 0.6 86
2019-11-07 18:00:00 8.8 -- -- 8 Sudeste 0 904 0.3 74
2019-11-07 17:00:00 9.4 -- -- 15 Norte 0 904 0.1 68
2019-11-07 16:00:00 11 -- -- 19 Noroeste 0 903.6 -0.5 66
2019-11-07 15:00:00 10.6 -- -- 13 Noroeste 0 903.7 -1.1 79
2019-11-07 14:00:00 11.6 -- -- 15 Noroeste 0 903.9 -0.8 83
2019-11-07 13:00:00 11.5 -- -- 9 Oeste 0 904.1 0.2 99
2019-11-07 12:00:00 10.2 -- -- 6 Noroeste 0 904.8 0.5 99
2019-11-07 11:00:00 10 -- -- 5 Nordeste 0 904.7 0.3 99
2019-11-07 10:00:00 9.4 -- -- 2 Sudeste 0.3 903.9 -0.3 99
2019-11-07 09:00:00 9 -- -- 5 Sudeste 0.5 904.3 -0.3 99
2019-11-07 08:00:00 8.9 -- -- 7 Este 0.1 904.4 -0.6 99
2019-11-07 07:00:00 8.3 -- -- 10 Oeste 0.9 904.2 -1.3 99
2019-11-07 06:00:00 7.4 -- -- -- -- 0.9 904.6 -1.6 99
2019-11-07 05:00:00 7.3 -- -- -- -- 0.7 905 -1.6 99
2019-11-07 04:00:00 7.2 -- -- -- -- 0 905.5 -1.5 99
2019-11-07 03:00:00 6.5 -- -- -- -- 0 906.2 -1.2 99
2019-11-07 02:00:00 6 -- -- -- -- 0 906.6 -1.2 99
2019-11-07 01:00:00 5.2 -- -- -- -- 0 907 -0.9 99
2019-11-07 00:00:00 4.8 -- -- 0 Calma 0 907.4 -0.5 99
2019-11-06 23:00:00 4.2 -- -- -- -- 0 907.8 -0.7 99
2019-11-06 22:00:00 5.1 -- -- -- -- 0 907.9 -0.3 99
2019-11-06 21:00:00 6.2 -- -- -- -- 0 907.9 0.5 99
2019-11-06 20:00:00 5.8 -- -- -- -- 0 908.5 1.2 99
2019-11-06 19:00:00 6.6 -- -- 0 Calma 0 908.2 0.5 99
2019-11-06 18:00:00 8.6 -- -- 4 Noroeste 0 907.4 -0.3 99
2019-11-06 17:00:00 11.8 -- -- 8 Sudeste 0 907.3 -1 77
2019-11-06 16:00:00 11.6 -- -- 13 Noroeste 0 907.7 -1.3 76
2019-11-06 15:00:00 12.2 -- -- 10 Noroeste 0 907.7 -2 75
2019-11-06 14:00:00 12.8 -- -- 12 Noroeste 0 908.3 -1.6 76
2019-11-06 13:00:00 11.3 -- -- 12 Oeste 0 909 -1.3 83
2019-11-06 12:00:00 11.8 -- -- 9 Oeste 0 909.7 -0.6 84
2019-11-06 11:00:00 9.9 -- -- 4 Este 0 909.9 0.2 99
2019-11-06 10:00:00 4.8 -- -- 4 Este 0 910.3 1.4 99
2019-11-06 09:00:00 2.8 -- -- 0 Calma 0 910.3 1.4 99
2019-11-06 08:00:00 2.8 -- -- 4 Noroeste 0 909.7 1 99
2019-11-06 07:00:00 3.3 -- -- 0 Calma 0 908.9 0.4 99
2019-11-06 06:00:00 3.5 -- -- -- -- 0 908.9 0.3 99
2019-11-06 05:00:00 3.3 -- -- 3 Oeste 0 908.7 0.2 99
2019-11-06 04:00:00 3.1 -- -- 3 Oeste 0 908.5 0 99
2019-11-06 03:00:00 3.8 -- -- 5 Oeste 0 908.6 0.4 99
2019-11-06 02:00:00 3.8 -- -- 6 Oeste 0 908.5 0.5 99
2019-11-06 01:00:00 4.1 -- -- 6 Oeste 0 908.5 0.7 99
2019-11-06 00:00:00 4.7 -- -- 3 Sudeste 0 908.2 1.1 99
2019-11-05 23:00:00 5 -- -- 0 Calma 0 908 1.4 99
2019-11-05 22:00:00 5.5 -- -- 3 Sudeste 0 907.8 1.6 99
2019-11-05 21:00:00 5.6 -- -- 2 Sudeste 0.1 907.1 1.6 99
2019-11-05 20:00:00 5.8 -- -- 3 Este 0 906.6 1.9 99
2019-11-05 19:00:00 6.8 -- -- 4 Noroeste 0 906.2 2.6 99
2019-11-05 18:00:00 7.6 -- -- 25 Nordeste 0.4 905.5 1.5 99
2019-11-05 17:00:00 9.5 -- -- 8 Sur 0.2 904.7 0.5 99
2019-11-05 16:00:00 10.1 -- -- 11 Sudeste 0 903.6 -1 99
2019-11-05 15:00:00 10.6 -- -- 9 Sudeste 0 904 -0.9 99
2019-11-05 14:00:00 9 -- -- 6 Sudeste 0 904.2 -0.8 99
2019-11-05 13:00:00 9.2 -- -- 9 Sudeste 0 904.6 0 99
2019-11-05 12:00:00 8.9 -- -- 14 Sudoeste 0 904.9 0.6 99
2019-11-05 11:00:00 8.3 -- -- 12 Oeste 0 905 1.5 99
2019-11-05 10:00:00 7.8 -- -- 9 Este 0.1 904.6 1.7 99
2019-11-05 09:00:00 7.1 -- -- 8 Sudeste 0.1 904.3 1.6 99
2019-11-05 08:00:00 6.5 -- -- 6 Este 0.1 903.5 1.2 99
2019-11-05 07:00:00 6.7 -- -- 6 Nordeste 0 902.9 0.9 99
2019-11-05 06:00:00 6.8 -- -- 9 Oeste 0 902.7 0.6 99
2019-11-05 05:00:00 7 -- -- 9 Noroeste 0 902.3 0.7 99
2019-11-05 04:00:00 7.4 -- -- 5 Noroeste 0 902 0.6 99
2019-11-05 03:00:00 7.2 -- -- 5 Este 0 902.1 0.8 99
2019-11-05 02:00:00 8 -- -- 15 Noroeste 2.7 901.6 0.7 99
2019-11-05 01:00:00 9.6 -- -- 11 Noroeste 0.6 901.4 0 99
2019-11-05 00:00:00 9.8 -- -- 18 Oeste 1 901.3 0 99
2019-11-04 23:00:00 11.3 -- -- 20 Sudeste 1 900.9 -0.8 99
2019-11-04 22:00:00 11.7 -- -- 22 Oeste 0.4 901.4 -0.5 99
2019-11-04 21:00:00 11.5 -- -- 17 Sudeste 0.7 901.3 -0.7 99
2019-11-04 20:00:00 11.5 -- -- 19 Noroeste 0.6 901.7 -0.8 99
2019-11-04 19:00:00 12.6 -- -- 20 Este 0 901.9 -1 99
2019-11-04 18:00:00 13.5 -- -- 23 Sudeste 0 902 -1.4 99
2019-11-04 17:00:00 14.2 -- -- 27 Este 0 902.5 -1.4 97
2019-11-04 16:00:00 14.2 -- -- 28 Oeste 0 902.9 -1.5 99
2019-11-04 15:00:00 13.9 -- -- 21 Sudeste 0 903.4 -1.7 99
2019-11-04 14:00:00 13.6 -- -- 20 Sudeste 0 903.9 -1.9 99
2019-11-04 13:00:00 13.7 -- -- 18 Sudeste 0 904.4 -1.7 99
2019-11-04 12:00:00 14.1 -- -- 27 Sur 0 905.1 -1 99
2019-11-04 11:00:00 12.7 -- -- 24 Este 0 905.8 0 99
2019-11-04 10:00:00 12.5 -- -- 27 Sudeste 0 906.1 0.3 99
2019-11-04 09:00:00 12 -- -- 21 Sudeste 0.1 906.1 0.1 99
2019-11-04 08:00:00 11.9 -- -- 18 Sudeste 0.1 905.8 0.1 99
2019-11-04 07:00:00 11.6 -- -- 22 Sudeste 0 905.8 -0.1 99
2019-11-04 06:00:00 11.6 -- -- 26 Sudeste 0.4 906 -0.4 99
2019-11-04 05:00:00 11.3 -- -- 12 Noroeste 0.1 905.7 -0.7 99
2019-11-04 04:00:00 11.6 -- -- 19 Oeste 0 905.9 -1 99
2019-11-04 03:00:00 12 -- -- 9 Sudeste 0 906.4 -0.5 99
2019-11-04 02:00:00 11.5 -- -- 5 Este 0 906.4 -0.7 99
2019-11-04 01:00:00 11.4 -- -- 6 Sudoeste 0 906.9 -0.2 99
2019-11-04 00:00:00 11.3 -- -- 11 Sudeste 0 906.9 0.3 99
2019-11-03 23:00:00 9.7 -- -- 4 Oeste 0 907.1 1.2 99
2019-11-03 22:00:00 8.6 -- -- 6 Oeste 0 907.1 2 99
2019-11-03 21:00:00 8.2 -- -- 4 Oeste 0 906.6 2.5 99
2019-11-03 20:00:00 9.5 -- -- 4 Noroeste 0 905.9 2.7 99
2019-11-03 19:00:00 9.4 -- -- 5 Este 0 905.1 2.4 99
2019-11-03 18:00:00 10.9 -- -- 4 Sudeste 0.1 904.1 1.7 94
2019-11-03 17:00:00 13.9 -- -- 14 Noroeste 0 903.2 1 71
2019-11-03 16:00:00 15 -- -- 19 Norte 0 902.7 0.5 69
2019-11-03 15:00:00 14.9 -- -- 23 Norte 0 902.4 1 68
2019-11-03 14:00:00 14.2 -- -- 19 Noroeste 0 902.2 1.3 71
2019-11-03 13:00:00 13.1 -- -- 27 Oeste 0 902.2 2.6 74
2019-11-03 12:00:00 13.6 -- -- 25 Oeste 0 901.4 3.7 75
2019-11-03 11:00:00 12.8 -- -- 22 Noroeste 0 900.9 3.5 87
2019-11-03 10:00:00 11.1 -- -- 22 Noroeste 2.1 899.6 2.4 99
2019-11-03 09:00:00 11.7 -- -- 16 Sudeste 1.5 897.7 -0.1 99
2019-11-03 08:00:00 11.7 -- -- 19 Sudeste 0.1 897.4 0 99
2019-11-03 07:00:00 11.4 -- -- 24 Sudeste 0.1 897.2 -0.9 99
2019-11-03 06:00:00 11.3 -- -- 23 Sudeste 0.7 897.8 -0.9 99
2019-11-03 05:00:00 11.3 -- -- 31 Nordeste 1.1 897.4 -1.9 99
2019-11-03 04:00:00 11.7 -- -- 23 Sudeste 0 898.1 -1.8 99
2019-11-03 03:00:00 12.5 -- -- 24 Sudeste 0 898.7 -1.4 99
2019-11-03 02:00:00 12.4 -- -- 24 Sudeste 0 899.3 -1.5 99
2019-11-03 01:00:00 12.8 -- -- 26 Sudeste 0 899.9 -1.3 99
2019-11-03 00:00:00 13.2 -- -- 23 Este 0 900.1 -1.2 99
2019-11-02 23:00:00 13.4 -- -- 19 Noroeste 0.1 900.8 -0.9 99
2019-11-02 22:00:00 13.1 -- -- 21 Este 0.3 901.2 -1.4 99
2019-11-02 21:00:00 14 -- -- 20 Oeste 0.4 901.3 -1.5 99
2019-11-02 20:00:00 14.8 -- -- 12 Sudeste 0 901.7 -1.3 99
2019-11-02 19:00:00 15 -- -- 17 Sudeste 0 902.6 -0.6 99
2019-11-02 18:00:00 15 -- -- 21 Sudeste 0 902.8 -0.7 99
2019-11-02 17:00:00 15.8 -- -- 14 Este 0 903 -1.4 99
2019-11-02 16:00:00 15.6 -- -- 17 Sudeste 0 903.2 -2.2 99
2019-11-02 15:00:00 16 -- -- 17 Sudeste 0 903.5 -2.3 99
2019-11-02 14:00:00 16.2 -- -- 12 Este 0 904.4 -2.2 99
2019-11-02 13:00:00 14.9 -- -- 17 Este 0.7 905.4 -1.2 99
2019-11-02 12:00:00 15.3 -- -- 13 Sudeste 0.2 905.8 -1.1 99
2019-11-02 11:00:00 14.5 -- -- 12 Sudeste 0.2 906.6 -0.1 99
2019-11-02 10:00:00 14.6 -- -- 12 Sudeste 0 906.6 -0.1 99
2019-11-02 09:00:00 13.9 -- -- 10 Sudeste 0 906.9 -0.3 99
2019-11-02 08:00:00 13.7 -- -- 10 Sudeste 0.3 906.7 -0.9 99
2019-11-02 07:00:00 13.5 -- -- 5 Sudeste 0.8 906.7 -1.5 99
2019-11-02 06:00:00 13.6 -- -- 6 Sudeste 0.9 907.2 -1.6 99
2019-11-02 05:00:00 14.7 -- -- 6 Oeste 0 907.6 -1.5 99
2019-11-02 04:00:00 14.7 -- -- 9 Norte 0 908.2 -1.5 99
2019-11-02 03:00:00 14.9 -- -- 8 Oeste 0 908.8 -1.3 99
2019-11-02 02:00:00 15.1 -- -- 9 Noroeste 0 909.1 -1.5 99
2019-11-02 01:00:00 15.1 -- -- 15 Oeste 0 909.7 -1.3 99
2019-11-02 00:00:00 15.6 -- -- 12 Sudeste 0 910.1 -0.9 99
2019-11-01 23:00:00 15.7 -- -- 15 Oeste 0 910.6 -0.6 99
2019-11-01 22:00:00 15.8 -- -- 8 Sudeste 0 911 -0.1 99
2019-11-01 21:00:00 15.7 -- -- 10 Oeste 0 911 -0.2 99
2019-11-01 20:00:00 15.4 -- -- 15 Sudeste 0.3 911.2 -0.6 99
2019-11-01 19:00:00 15.7 -- -- 13 Este 0.2 911.1 -1 99
2019-11-01 18:00:00 15.3 -- -- 3 Nordeste 0 911.2 -1.1 99
2019-11-01 17:00:00 15.6 -- -- 6 Nordeste 0.5 911.8 -1.2 99
2019-11-01 16:00:00 15.8 -- -- 15 Sudeste 1.6 912.1 -2.1 99
2019-11-01 15:00:00 18.1 -- -- 15 Oeste 0 912.3 -2.5 99
2019-11-01 14:00:00 18 -- -- 7 Sudeste 0 913 -2.5 99
2019-11-01 13:00:00 17.7 -- -- 11 Sudeste 0 914.2 -1.3 99
2019-11-01 12:00:00 16 -- -- 5 Norte 0 914.8 -0.8 99
2019-11-01 11:00:00 15.1 -- -- 4 Sudeste 0 915.5 0.1 99
2019-11-01 10:00:00 13.5 -- -- 0 Calma 0 915.5 0 99
2019-11-01 09:00:00 12.6 -- -- 2 Sudeste 0.1 915.6 -0.1 99
2019-11-01 08:00:00 12 -- -- -- -- 0 915.4 -0.3 99
2019-11-01 07:00:00 11.7 -- -- -- -- 0 915.5 -0.6 99
2019-11-01 06:00:00 11.8 -- -- 0 Calma 0.1 915.7 -0.7 99
2019-11-01 05:00:00 11.4 -- -- -- -- 0.2 915.7 -0.9 99
2019-11-01 04:00:00 11.2 -- -- 0 Calma 0 916.1 -1 99
2019-11-01 03:00:00 10.5 -- -- -- -- 0 916.4 -1.1 99
2019-11-01 02:00:00 10.5 -- -- -- -- 0 916.6 -0.5 99
2019-11-01 01:00:00 10.4 -- -- -- -- 0 917.1 -0.2 99
2019-11-01 00:00:00 10.3 -- -- -- -- 0 917.5 0.3 99
2019-10-31 23:00:00 11 -- -- -- -- 0 917.1 -0.1 99
2019-10-31 22:00:00 12.4 -- -- -- -- 0 917.3 0.4 99
2019-10-31 21:00:00 13.6 -- -- -- -- 0 917.2 0.8 99
2019-10-31 20:00:00 14.8 -- -- -- -- 0 917.2 1.2 99
2019-10-31 19:00:00 15.7 -- -- -- -- 0 916.9 0.9 99
2019-10-31 18:00:00 17.5 -- -- 9 Norte 0 916.4 0.2 86
2019-10-31 17:00:00 18.8 -- -- 9 Oeste 0 916 -0.6 82
2019-10-31 16:00:00 18.2 -- -- 9 Norte 0 916 -0.9 84
2019-10-31 15:00:00 19 -- -- 11 Noroeste 0 916.2 -1.2 83
2019-10-31 14:00:00 18.2 -- -- 11 Noroeste 0 916.6 -1.1 83
2019-10-31 13:00:00 18.8 -- -- 12 Noroeste 0 916.9 -0.7 81
2019-10-31 12:00:00 17.2 -- -- 11 Norte 0 917.4 0.1 91
2019-10-31 11:00:00 16.5 -- -- 8 Nordeste 0 917.7 1.3 99
2019-10-31 10:00:00 14.2 -- -- 3 Noroeste 0 917.6 1.2 99
2019-10-31 09:00:00 12.9 -- -- -- -- 0 917.3 1 99
2019-10-31 08:00:00 12.1 -- -- -- -- 0 916.4 0.2 99
2019-10-31 07:00:00 12.1 -- -- 2 Noroeste 0 916.4 0.3 99
2019-10-31 06:00:00 12.1 -- -- 0 Calma 0.1 916.3 0 99
2019-10-31 05:00:00 12 -- -- 0 Calma 0 916.2 -0.4 99
2019-10-31 04:00:00 11.9 -- -- 0 Calma 0 916.1 -0.7 99
2019-10-31 03:00:00 11.6 -- -- -- -- 0 916.3 -0.7 99
2019-10-31 02:00:00 11.4 -- -- -- -- 0 916.6 -0.5 99
2019-10-31 01:00:00 11.1 -- -- -- -- 0 916.8 -0.6 99
2019-10-31 00:00:00 11.6 -- -- -- -- 0 917 0.1 99
2019-10-30 23:00:00 11.9 -- -- -- -- 0 917.1 0.1 99
2019-10-30 22:00:00 12.1 -- -- 0 Calma 0 917.4 0.6 99
2019-10-30 21:00:00 12.1 -- -- -- -- 0 916.9 0.6 99
2019-10-30 20:00:00 12.5 -- -- -- -- 0 917 0.9 99
2019-10-30 19:00:00 13.5 -- -- -- -- 0 916.8 0.8 99
2019-10-30 18:00:00 14.9 -- -- 3 Noroeste 0 916.3 0.2 99
2019-10-30 17:00:00 16.7 -- -- 8 Noroeste 0 916.1 -0.2 86
2019-10-30 16:00:00 17.3 -- -- 8 Noroeste 0 916 -0.3 82
2019-10-30 15:00:00 18 -- -- 8 Oeste 0 916.1 -0.7 78
2019-10-30 14:00:00 17.5 -- -- 15 Oeste 0 916.3 -0.5 80
2019-10-30 13:00:00 18.9 -- -- 10 Noroeste 0 916.3 -0.9 79
2019-10-30 12:00:00 18.3 -- -- 7 Sudoeste 0 916.8 -0.4 83
2019-10-30 11:00:00 16.7 -- -- 3 Sudeste 0 916.8 0.3 91
2019-10-30 10:00:00 11.6 -- -- 0 Calma 0 917.2 0.7 99
2019-10-30 09:00:00 7.4 -- -- -- -- 0 917.2 1.4 99
2019-10-30 08:00:00 6.3 -- -- -- -- 0 916.5 0.8 99
2019-10-30 07:00:00 6.3 -- -- -- -- 0 916.5 0.6 99
2019-10-30 06:00:00 7.1 -- -- -- -- 0 915.8 -0.3 99
2019-10-30 05:00:00 7.6 -- -- -- -- 0 915.7 -0.4 99
2019-10-30 04:00:00 8.3 -- -- -- -- 0 915.9 -0.2 99
2019-10-30 03:00:00 8.8 -- -- -- -- 0 916.1 0.2 99
2019-10-30 02:00:00 9.5 -- -- -- -- 0 916.1 0.2 99
2019-10-30 01:00:00 10.3 -- -- -- -- 0 916.1 0.5 99
2019-10-30 00:00:00 11.1 -- -- 3 Nordeste 0 915.9 0.3 99
2019-10-29 23:00:00 11.1 -- -- 0 Calma 0 915.9 1 99
2019-10-29 22:00:00 10.7 -- -- 0 Calma 0 915.6 1.5 99
2019-10-29 21:00:00 9.9 -- -- 3 Noroeste 0 915.6 -- 99
2019-10-29 20:00:00 10 -- -- -- -- 0 914.9 1.9 99
2019-10-29 19:00:00 11.2 -- -- -- -- 0 914.1 1.8 99
2019-10-29 18:00:00 -- -- -- -- -- -- -- -- --
2019-10-29 17:00:00 17.3 -- -- 7 Noroeste 0 913 0.6 89
2019-10-29 16:00:00 18.7 -- -- 9 Noroeste 0 912.3 -0.6 84
2019-10-29 15:00:00 19.9 -- -- 15 Noroeste 0 912.2 -1.3 81
2019-10-29 14:00:00 19.1 0 Calma 11 Oeste 0 912.4 -1.4 82
2019-10-29 13:00:00 18.2 0 Calma 9 Oeste 0 912.9 -1.1 89
2019-10-29 12:00:00 17.2 0 Calma 8 Oeste 0 913.5 -0.1 91
2019-10-29 11:00:00 13.2 0 Calma 0 Calma 0 913.8 -- 99
2019-10-29 10:00:00 10.1 0 Calma -- -- 0.1 914 1.8 99
2019-10-29 09:00:00 6.7 0 Calma -- -- 0 913.6 1.6 99
2019-10-29 08:00:00 -- 0 Calma -- -- 0 -- -- --
2019-10-29 07:00:00 5.6 0 Calma -- -- 0 912.2 0.1 99
2019-10-29 06:00:00 6 0 Calma -- -- 0 912 -0.3 99
2019-10-29 05:00:00 6.3 0 Calma -- -- 0 912.2 -0.4 99
2019-10-29 04:00:00 6.7 0 Calma -- -- 0 912.1 -0.5 99
2019-10-29 03:00:00 7.1 0 Calma -- -- 0 912.3 -0.5 99
2019-10-29 02:00:00 7.7 0 Calma -- -- 0 912.6 -0.1 99
2019-10-29 01:00:00 8.4 0 Calma -- -- 0 912.6 0 99
2019-10-29 00:00:00 8.8 0 Calma -- -- 0 912.8 0.4 99
2019-10-28 23:00:00 9.1 0 Calma -- -- 0 912.7 0.3 99
2019-10-28 22:00:00 9.3 0 Calma -- -- 0 912.6 0.5 99
2019-10-28 21:00:00 9.9 0 Calma -- -- 0 912.4 0.9 99
2019-10-28 20:00:00 11.1 0 Calma -- -- 0 912.4 0.8 99
2019-10-28 19:00:00 12.8 0 Calma 2 Oeste 0 912.1 0.4 99
2019-10-28 18:00:00 16 0 Calma 2 Nordeste 0 911.5 0.1 99
2019-10-28 17:00:00 18.3 0 Calma 5 Noroeste 0 911.6 -0.3 83
2019-10-28 16:00:00 19.7 0 Calma 8 Oeste 0 911.7 -1 65
2019-10-28 15:00:00 -- -- -- -- -- -- -- -- --
2019-10-28 14:00:00 -- -- -- -- -- -- -- -- --
2019-10-28 13:00:00 -- -- -- -- -- -- -- -- --
2019-10-28 12:00:00 -- -- -- -- -- -- -- -- --
2019-10-28 11:00:00 -- -- -- -- -- -- -- -- --
2019-10-28 10:00:00 -- -- -- -- -- -- -- -- --
2019-10-28 09:00:00 -- -- -- -- -- -- -- -- --
2019-10-28 08:00:00 -- -- -- -- -- -- -- -- --
2019-10-28 07:00:00 -- -- -- -- -- -- -- -- --
2019-10-28 06:00:00 -- -- -- -- -- -- -- -- --
2019-10-28 05:00:00 -- -- -- -- -- -- -- -- --
2019-10-28 04:00:00 -- -- -- -- -- -- -- -- --
2019-10-28 03:00:00 -- -- -- -- -- -- -- -- --
2019-10-28 02:00:00 -- -- -- -- -- -- -- -- --
2019-10-28 01:00:00 -- -- -- -- -- -- -- -- --
2019-10-28 00:00:00 -- -- -- -- -- -- -- -- --
2019-10-27 23:00:00 -- -- -- -- -- -- -- -- --
2019-10-27 22:00:00 -- -- -- -- -- -- -- -- --
2019-10-27 21:00:00 -- -- -- -- -- -- -- -- --
2019-10-27 20:00:00 -- -- -- -- -- -- -- -- --
2019-10-27 19:00:00 -- -- -- -- -- -- -- -- --
2019-10-27 18:00:00 -- -- -- -- -- -- -- -- --
2019-10-27 17:00:00 -- -- -- -- -- -- -- -- --
2019-10-27 16:00:00 -- -- -- -- -- -- -- -- --
2019-10-27 15:00:00 -- -- -- -- -- -- -- -- --
2019-10-27 14:00:00 -- -- -- -- -- -- -- -- --
2019-10-27 13:00:00 -- -- -- -- -- -- -- -- --
2019-10-27 12:00:00 -- -- -- -- -- -- -- -- --
2019-10-27 11:00:00 -- -- -- -- -- -- -- -- --
2019-10-27 10:00:00 -- -- -- -- -- -- -- -- --
2019-10-27 09:00:00 -- -- -- -- -- -- -- -- --
2019-10-27 08:00:00 -- -- -- -- -- -- -- -- --
2019-10-27 07:00:00 -- -- -- -- -- -- -- -- --
2019-10-27 06:00:00 -- -- -- -- -- -- -- -- --
2019-10-27 05:00:00 -- -- -- -- -- -- -- -- --
2019-10-27 04:00:00 -- -- -- -- -- -- -- -- --
2019-10-27 03:00:00 4.5 -- -- -- -- 0 916.1 -0.9 99
2019-10-27 02:00:00 4.9 -- -- -- -- 0 916.6 -0.3 99
2019-10-27 01:00:00 5.7 -- -- -- -- 0 917 0.5 99
2019-10-27 00:00:00 6.2 -- -- -- -- 0 916.9 1 99
2019-10-26 23:00:00 6.9 -- -- -- -- 0 916.8 1.3 99
2019-10-26 22:00:00 7.7 -- -- -- -- 0 916.5 1.8 99
2019-10-26 21:00:00 8.8 -- -- -- -- 0 915.9 1.7 99
2019-10-26 20:00:00 10.1 -- -- -- -- 0 915.5 1.6 99
2019-10-26 19:00:00 12.1 -- -- -- -- 0 914.7 0.3 99
2019-10-26 18:00:00 16.8 -- -- -- -- 0 914.2 -0.7 75
2019-10-26 17:00:00 20.9 -- -- -- -- 0 913.9 -1.7 52
2019-10-26 16:00:00 22 -- -- -- -- 0 914.4 -1.9 54
2019-10-26 15:00:00 20.5 -- -- -- -- 0 914.9 -1.8 57
2019-10-26 14:00:00 19.9 -- -- -- -- 0.1 915.6 -1.3 62
2019-10-26 13:00:00 19.5 -- -- -- -- 0 916.3 -0.5 70
2019-10-26 12:00:00 14.1 -- -- -- -- 0 916.7 0 99
2019-10-26 11:00:00 9.9 -- -- -- -- 0 916.9 0.3 99
2019-10-26 10:00:00 3.9 -- -- -- -- 0 916.8 0.3 99
2019-10-26 09:00:00 3.1 -- -- -- -- 0 916.7 0.3 99
2019-10-26 08:00:00 3.2 -- -- -- -- 0 916.6 0 99
2019-10-26 07:00:00 3.5 -- -- -- -- 0 916.5 -0.4 99
2019-10-26 06:00:00 3.9 -- -- -- -- 0 916.4 -0.7 99
2019-10-26 05:00:00 4.3 -- -- -- -- 0 916.6 -0.8 99
2019-10-26 04:00:00 4.9 -- -- -- -- 0 916.9 -0.5 99
2019-10-26 03:00:00 5.2 -- -- -- -- 0 917.1 -0.1 99
2019-10-26 02:00:00 6.1 -- -- -- -- 0 917.4 0.1 99
2019-10-26 01:00:00 6.5 -- -- -- -- 0 917.4 0.4 99
2019-10-26 00:00:00 7 -- -- -- -- 0 917.2 0.6 99
2019-10-25 23:00:00 8 -- -- -- -- 0 917.3 0.9 99
2019-10-25 22:00:00 8.8 -- -- -- -- 0 917 1.3 99
2019-10-25 21:00:00 10.1 -- -- -- -- 0 916.6 1.2 99
2019-10-25 20:00:00 11.6 -- -- -- -- 0 916.4 1.1 99
2019-10-25 19:00:00 -- -- -- -- -- -- -- -- --
2019-10-25 18:00:00 -- -- -- -- -- -- -- -- --
2019-10-25 17:00:00 -- -- -- -- -- -- -- -- --
2019-10-25 16:00:00 -- -- -- -- -- -- -- -- --
2019-10-25 15:00:00 -- -- -- -- -- -- -- -- --
2019-10-25 14:00:00 -- -- -- -- -- -- -- -- --
2019-10-25 13:00:00 -- -- -- -- -- -- -- -- --
2019-10-25 12:00:00 -- -- -- -- -- -- -- -- --
2019-10-25 11:00:00 9.7 -- -- -- -- 0 918.1 -0.2 99
2019-10-25 10:00:00 4.1 -- -- -- -- 0 918.5 0.4 99
2019-10-25 09:00:00 3.2 -- -- -- -- 0 918.4 0.4 99
2019-10-25 08:00:00 3.1 -- -- -- -- 0 918.3 0.4 99
2019-10-25 07:00:00 3.4 -- -- -- -- 0.1 918.1 0.1 99
2019-10-25 06:00:00 3.9 -- -- -- -- 0 918 -0.1 99
2019-10-25 05:00:00 4.2 -- -- -- -- 0 917.9 -0.1 99
2019-10-25 04:00:00 4.7 -- -- -- -- 0 918 0.1 99
2019-10-25 03:00:00 5.2 -- -- -- -- 0 918.1 0.4 99
2019-10-25 02:00:00 5.7 -- -- -- -- 0 918 0.9 99
2019-10-25 01:00:00 6.4 -- -- -- -- 0 917.9 1.5 99
2019-10-25 00:00:00 7.5 -- -- -- -- 0 917.7 1.8 99
2019-10-24 23:00:00 8.9 -- -- -- -- 0 917.1 2.1 99
2019-10-24 22:00:00 10.7 -- -- -- -- 0 916.4 2.3 99
2019-10-24 21:00:00 11.3 -- -- -- -- 0 915.9 2.5 99
2019-10-24 20:00:00 11.6 -- -- -- -- 0 915 2.1 99
2019-10-24 19:00:00 13 -- -- -- -- 0 914.1 1.7 91
2019-10-24 18:00:00 14.3 -- -- -- -- 0 913.4 0.7 77
2019-10-24 17:00:00 15 -- -- -- -- 0 912.9 0.4 72
2019-10-24 16:00:00 16.1 -- -- -- -- 0 912.4 -0.3 71
2019-10-24 15:00:00 13.5 -- -- -- -- 0 912.7 0.6 79
2019-10-24 14:00:00 13.5 -- -- -- -- 0 912.5 0.8 84
2019-10-24 13:00:00 11.5 -- -- -- -- 0 912.7 2 95
2019-10-24 12:00:00 9.4 -- -- -- -- 0 912.1 2.5 99
2019-10-24 11:00:00 7.8 -- -- -- -- 0.1 911.7 2.9 99
2019-10-24 10:00:00 7.8 -- -- -- -- 0 910.7 2.4 99
2019-10-24 09:00:00 7.9 -- -- -- -- 0.3 909.6 2.2 99
2019-10-24 08:00:00 7.7 -- -- -- -- 0.2 908.8 1.9 99
2019-10-24 07:00:00 7.7 -- -- -- -- 0 908.3 1.6 99
2019-10-24 06:00:00 7.6 -- -- -- -- 0 907.4 1 99
2019-10-24 05:00:00 7.4 -- -- -- -- 0 906.9 0.7 99
2019-10-24 04:00:00 7.4 -- -- -- -- 0 906.7 0.8 99
2019-10-24 03:00:00 7.3 -- -- -- -- 0 906.4 0.9 99
2019-10-24 02:00:00 7.1 -- -- -- -- 0 906.2 1.2 99
2019-10-24 01:00:00 7.1 -- -- -- -- 0 905.9 1 99
2019-10-24 00:00:00 6.9 -- -- -- -- 0 905.5 1.5 99
2019-10-23 23:00:00 6.8 -- -- -- -- 0 905 1.5 99
2019-10-23 22:00:00 7.4 -- -- -- -- 0.9 904.9 2.4 99
2019-10-23 21:00:00 7.8 -- -- -- -- 0 904 1.9 99
2019-10-23 20:00:00 8.2 -- -- -- -- 0 903.5 1.3 99
2019-10-23 19:00:00 8.5 -- -- -- -- 0 902.5 0.2 99
2019-10-23 18:00:00 9.2 -- -- -- -- 0 902.1 0.2 99
2019-10-23 17:00:00 9.1 -- -- -- -- 0 902.2 0.7 99
2019-10-23 16:00:00 9.8 -- -- -- -- 0.1 902.3 0.7 99
2019-10-23 15:00:00 8.7 -- -- -- -- 0 901.9 -0.1 99
2019-10-23 14:00:00 9 -- -- -- -- 0 901.5 -0.4 99
2019-10-23 13:00:00 8.5 -- -- -- -- 0 901.6 -0.2 99
2019-10-23 12:00:00 7.2 -- -- -- -- 0 902 0.9 99
2019-10-23 11:00:00 6.5 -- -- -- -- 0 901.9 1.4 99
2019-10-23 10:00:00 6 -- -- -- -- 0 901.8 1.7 99
2019-10-23 09:00:00 5.7 -- -- -- -- 0.2 901.1 1.5 99
2019-10-23 08:00:00 5.4 -- -- -- -- 0.2 900.5 0.8 99
2019-10-23 07:00:00 6.3 -- -- -- -- 0.2 900.1 -0.2 99
2019-10-23 06:00:00 6.9 -- -- -- -- 0 899.6 -0.8 99
2019-10-23 05:00:00 7.1 -- -- -- -- 0.2 899.7 -0.5 99
2019-10-23 04:00:00 7 -- -- -- -- 0.3 900.3 -0.4 99
2019-10-23 03:00:00 7.1 -- -- -- -- 0.2 900.4 -1.2 99
2019-10-23 02:00:00 7.1 -- -- -- -- 0.6 900.2 -1.7 99
2019-10-23 01:00:00 6.9 -- -- -- -- 0 900.7 -1.9 99
2019-10-23 00:00:00 7.1 -- -- -- -- 0 901.6 -0.6 99
2019-10-22 23:00:00 7 -- -- -- -- 0.1 901.9 -0.6 99
2019-10-22 22:00:00 7 -- -- -- -- 0 902.6 0.6 99
2019-10-22 21:00:00 6.9 -- -- -- -- 0 902.2 -0.7 99
2019-10-22 20:00:00 7.1 -- -- -- -- 0 902.5 -0.7 99
2019-10-22 19:00:00 7.3 -- -- -- -- 0 902 -1.5 99
2019-10-22 18:00:00 7.1 -- -- -- -- 0.6 902.9 -1.7 99
2019-10-22 17:00:00 7.5 -- -- -- -- 1 903.2 -2.7 99
2019-10-22 16:00:00 7.4 -- -- -- -- 1.6 903.5 -3.3 99
2019-10-22 15:00:00 7.4 -- -- -- -- 2.1 904.6 -2.7 99
2019-10-22 14:00:00 7.4 -- -- -- -- 2.6 905.9 -2.5 99
2019-10-22 13:00:00 7.7 -- -- -- -- 3.5 906.8 -0.8 99
2019-10-22 12:00:00 7.7 -- -- -- -- 0.9 907.3 -0.6 99
2019-10-22 11:00:00 8.1 -- -- -- -- 0.4 908.4 0.8 99
2019-10-22 10:00:00 8.8 -- -- -- -- 0 907.6 -0.1 99
2019-10-22 09:00:00 7.3 -- -- -- -- 0 907.9 -1.6 99
2019-10-22 08:00:00 5.1 -- -- -- -- 0 907.6 -2.1 99
2019-10-22 07:00:00 4.5 -- -- -- -- 0 907.7 -2.7 99
2019-10-22 06:00:00 4.2 -- -- -- -- 0 909.5 -1.5 99
2019-10-22 05:00:00 3.8 -- -- -- -- 0.1 909.7 -2 99
2019-10-22 04:00:00 3.6 -- -- -- -- 0 910.4 -1.7 99
2019-10-22 03:00:00 3.8 -- -- -- -- 0 911 -0.8 99
2019-10-22 02:00:00 3.3 -- -- -- -- 0 911.7 -0.1 99
2019-10-22 01:00:00 3.6 -- -- -- -- 0 912.1 0.3 99
2019-10-22 00:00:00 3.9 -- -- -- -- 0 911.8 0.4 99
2019-10-21 23:00:00 4.6 -- -- -- -- 0 911.8 0.9 99
2019-10-21 22:00:00 5.4 -- -- -- -- 0 911.8 1.7 99
2019-10-21 21:00:00 6.3 -- -- -- -- 0 911.4 1.5 99
2019-10-21 20:00:00 7.9 -- -- -- -- 0 910.9 1.1 99
2019-10-21 19:00:00 11 -- -- -- -- 0 910.1 0.2 94
2019-10-21 18:00:00 14 -- -- -- -- 0 909.9 -0.4 73
2019-10-21 17:00:00 13 -- -- -- -- 0 909.8 -0.9 76
2019-10-21 16:00:00 15.8 -- -- -- -- 0 909.9 -1.2 68
2019-10-21 15:00:00 13 -- -- -- -- 0 910.3 -1 77
2019-10-21 14:00:00 13.3 -- -- -- -- 0 910.7 -0.9 75
2019-10-21 13:00:00 13.4 -- -- -- -- 0 911.1 -0.6 78
2019-10-21 12:00:00 11 -- -- -- -- 0 911.3 0.3 98
2019-10-21 11:00:00 8.4 -- -- -- -- 0 911.6 1.1 99
2019-10-21 10:00:00 5.8 -- -- -- -- 0 911.7 1.5 99
2019-10-21 09:00:00 4.3 -- -- -- -- 0 911 1 99
2019-10-21 08:00:00 4.2 -- -- -- -- 0 910.5 0.9 99
2019-10-21 07:00:00 5.3 -- -- -- -- 0 910.2 0.4 99
2019-10-21 06:00:00 5.1 -- -- -- -- 0 910 0.5 99
2019-10-21 05:00:00 6.3 -- -- -- -- 0 909.6 0.3 99
2019-10-21 04:00:00 6.9 -- -- -- -- 0 909.8 0.7 99
2019-10-21 03:00:00 7.6 -- -- -- -- 0 909.5 0.5 99
2019-10-21 02:00:00 8.1 -- -- -- -- 0 909.3 0.5 99
2019-10-21 01:00:00 8.1 -- -- -- -- 0.1 909.1 1 99
2019-10-21 00:00:00 8 -- -- -- -- 0.5 909 1.3 99
2019-10-20 23:00:00 8.8 -- -- -- -- 0.1 908.8 1.7 99
2019-10-20 22:00:00 8.8 -- -- -- -- 0.3 908.1 1.9 99
2019-10-20 21:00:00 9.1 -- -- -- -- 0.1 907.7 2.2 99
2019-10-20 20:00:00 9.2 -- -- -- -- 0.1 907.1 2 99
2019-10-20 19:00:00 9.5 -- -- -- -- 0 906.2 2.2 99
2019-10-20 18:00:00 9.4 -- -- -- -- 0.2 905.5 1.7 99
2019-10-20 17:00:00 10.5 -- -- -- -- 0 905.1 1.3 99
2019-10-20 16:00:00 11 -- -- -- -- 0.3 904 0.2 99
2019-10-20 15:00:00 10.6 -- -- -- -- 0.2 903.8 0.3 99
2019-10-20 14:00:00 12.2 -- -- -- -- 0 903.8 0.1 96
2019-10-20 13:00:00 11.7 -- -- -- -- 0 903.8 0.5 99
2019-10-20 12:00:00 11.1 -- -- -- -- 0 903.5 1.2 99
2019-10-20 11:00:00 10.7 -- -- -- -- 0 903.7 1.9 99
2019-10-20 10:00:00 10 -- -- -- -- 0.1 903.3 1.8 99
2019-10-20 09:00:00 10 -- -- -- -- 0 902.3 1.4 99
2019-10-20 08:00:00 10.4 -- -- -- -- 0 901.8 1.4 99
2019-10-20 07:00:00 10.7 -- -- -- -- 0 901.5 1 99
2019-10-20 06:00:00 11.4 -- -- -- -- 0 900.9 0 99
2019-10-20 05:00:00 11.8 -- -- -- -- 0 900.4 -0.9 99
2019-10-20 04:00:00 11.8 -- -- -- -- 0.1 900.5 -0.5 99
2019-10-20 03:00:00 11.9 -- -- -- -- 1.9 900.9 -1.4 99
2019-10-20 02:00:00 12.2 -- -- -- -- 5.5 901.3 -0.9 99
2019-10-20 01:00:00 11.8 -- -- -- -- 4.4 901 -0.6 99
2019-10-20 00:00:00 11.8 -- -- -- -- 11.5 902.3 0.5 99
2019-10-19 23:00:00 12.3 -- -- -- -- 0.6 902.2 0 99
2019-10-19 22:00:00 12.5 -- -- -- -- 0 901.6 -1 99
2019-10-19 21:00:00 13.2 -- -- -- -- 0 901.8 -1.6 99
2019-10-19 20:00:00 13.3 -- -- -- -- 0 902.2 -1.5 99
2019-10-19 19:00:00 13.5 -- -- -- -- 0.8 902.6 -1.4 99
2019-10-19 18:00:00 13.4 -- -- -- -- 0.2 903.4 -0.9 99
2019-10-19 17:00:00 15.4 -- -- -- -- 0 903.7 -1.3 93
2019-10-19 16:00:00 17.1 -- -- -- -- 0 904 -1.5 86
2019-10-19 15:00:00 17.4 -- -- -- -- 0 904.3 -1.6 84
2019-10-19 14:00:00 16.4 -- -- -- -- 0 905 -1.6 93
2019-10-19 13:00:00 16.4 -- -- -- -- 0 905.5 -1 94
2019-10-19 12:00:00 16.4 -- -- -- -- 0 905.9 -0.4 94
2019-10-19 11:00:00 13.6 -- -- -- -- 0 906.6 0.1 99
2019-10-19 10:00:00 13.2 -- -- -- -- 0 906.5 -0.4 99
2019-10-19 09:00:00 12.5 -- -- -- -- 0 906.3 -0.3 99
2019-10-19 08:00:00 13.1 -- -- -- -- 0 906.5 -0.4 99
2019-10-19 07:00:00 13.2 -- -- -- -- 0 906.9 -0.5 99
2019-10-19 06:00:00 12.3 -- -- -- -- 0.1 906.6 -1.2 99
2019-10-19 05:00:00 13.1 -- -- -- -- 0 906.9 -1.6 99
2019-10-19 04:00:00 13.8 -- -- -- -- 0 907.4 -1.3 99
2019-10-19 03:00:00 11.3 -- -- -- -- 0 907.8 -1.3 99
2019-10-19 02:00:00 10.5 -- -- -- -- 0 908.5 -0.9 99
2019-10-19 01:00:00 9.7 -- -- -- -- 0 908.7 -0.7 99
2019-10-19 00:00:00 10.3 -- -- -- -- 0 909.1 -0.1 99
2019-10-18 23:00:00 11.1 -- -- -- -- 0 909.4 0.3 99
2019-10-18 22:00:00 11.7 -- -- -- -- 0 909.4 0.4 99
2019-10-18 21:00:00 12.1 -- -- -- -- 0 909.2 -0.4 99
2019-10-18 20:00:00 13.7 -- -- -- -- 0 909.1 -1.4 99
2019-10-18 19:00:00 16.3 -- -- -- -- 0 909 -1.4 99
2019-10-18 18:00:00 18.6 -- -- -- -- 0 909.6 -1.5 99
2019-10-18 17:00:00 18.7 -- -- -- -- 0 910.5 -0.9 98
2019-10-18 16:00:00 18.8 -- -- -- -- 0.1 910.4 -1.8 99
2019-10-18 15:00:00 16.3 -- -- -- -- 0.2 911.1 -1.1 99
2019-10-18 14:00:00 17.5 -- -- -- -- 0 911.4 -1.1 99
2019-10-18 13:00:00 16.6 -- -- -- -- 0 912.2 -0.1 99
2019-10-18 12:00:00 15.4 -- -- -- -- 0 912.2 0.2 99
2019-10-18 11:00:00 14.4 -- -- -- -- 0.6 912.5 0.7 99
2019-10-18 10:00:00 14 -- -- -- -- 0.2 912.3 0.5 99
2019-10-18 09:00:00 13.8 -- -- -- -- 0 912 0 99
2019-10-18 08:00:00 13.6 -- -- -- -- 0 911.8 -0.4 99
2019-10-18 07:00:00 13.4 -- -- -- -- 0 911.8 -0.4 99
2019-10-18 06:00:00 13 -- -- -- -- 0 912 -0.8 99
2019-10-18 05:00:00 12.9 -- -- -- -- 0.7 912.2 -0.7 99
2019-10-18 04:00:00 12.6 -- -- -- -- 0.1 912.2 -1.3 99
2019-10-18 03:00:00 12.3 -- -- -- -- 0 912.8 -1.1 99
2019-10-18 02:00:00 12.3 -- -- -- -- 0 912.9 -1 99
2019-10-18 01:00:00 12.8 -- -- -- -- 0 913.5 -0.5 99
2019-10-18 00:00:00 12.9 -- -- -- -- 0 913.9 0.2 99
2019-10-17 23:00:00 12.9 -- -- -- -- 0 913.9 0.7 99
2019-10-17 22:00:00 13.2 -- -- -- -- 0 914 1 99
2019-10-17 21:00:00 13.4 -- -- -- -- 0 913.7 0.9 99
2019-10-17 20:00:00 13.4 -- -- -- -- 0.1 913.2 0.6 99
2019-10-17 19:00:00 14.3 -- -- -- -- 0 913 -0.1 99
2019-10-17 18:00:00 15.1 -- -- -- -- 0 912.8 -0.6 99
2019-10-17 17:00:00 15.6 -- -- -- -- 0 912.6 -1.4 99
2019-10-17 16:00:00 14.7 -- -- -- -- 0 913.1 -1.5 99
2019-10-17 15:00:00 14.3 -- -- -- -- 0 913.4 -1.1 99
2019-10-17 14:00:00 12.6 -- -- -- -- 0 914 -0.4 99
2019-10-17 13:00:00 10.6 -- -- -- -- 0 914.6 0.4 99
2019-10-17 12:00:00 10.2 -- -- -- -- 0 914.5 0.8 99
2019-10-17 11:00:00 8.7 -- -- -- -- 0 914.4 1.3 99
2019-10-17 10:00:00 5.5 -- -- -- -- 0 914.2 1.3 99
2019-10-17 09:00:00 2.5 -- -- -- -- 0 913.7 1.2 99
2019-10-17 08:00:00 2.3 -- -- -- -- 0 913.1 0.3 99
2019-10-17 07:00:00 2.3 -- -- -- -- 0 912.9 -0.3 99
2019-10-17 06:00:00 2.7 -- -- -- -- 0 912.5 -1.1 99
2019-10-17 05:00:00 3.1 -- -- -- -- 0 912.8 -1 99
2019-10-17 04:00:00 3.2 -- -- -- -- 0 913.2 -0.8 99
2019-10-17 03:00:00 3.9 -- -- -- -- 0 913.6 -0.6 99
2019-10-17 02:00:00 4.1 -- -- -- -- 0 913.8 -0.2 99
2019-10-17 01:00:00 4.5 -- -- -- -- 0 914 0.5 99
2019-10-17 00:00:00 5.2 -- -- -- -- 0 914.2 0.7 99
2019-10-16 23:00:00 5.9 -- -- -- -- 0 914 1 99
2019-10-16 22:00:00 6.8 -- -- -- -- 0 913.5 1.6 99
2019-10-16 21:00:00 7.9 -- -- -- -- 0 913.5 1.6 99
2019-10-16 20:00:00 9.6 -- -- -- -- 0 913 0.6 99
2019-10-16 19:00:00 12.8 -- -- -- -- 0 911.9 -0.5 88
2019-10-16 18:00:00 16.3 -- -- -- -- 0 911.9 -1.3 66
2019-10-16 17:00:00 17.7 -- -- -- -- 0.1 912.4 -1.4 62
2019-10-16 16:00:00 19 -- -- -- -- 0 912.4 -2.3 63
2019-10-16 15:00:00 17.1 -- -- -- -- 0 913.2 -1.5 69
2019-10-16 14:00:00 16.1 -- -- -- -- 0 913.8 -1.6 75
2019-10-16 13:00:00 15.8 -- -- -- -- 0 914.7 -0.7 77
2019-10-16 12:00:00 14.7 -- -- -- -- 0 914.7 -0.1 83
2019-10-16 11:00:00 10 -- -- -- -- 0 915.4 0.9 99
2019-10-16 10:00:00 4.1 -- -- -- -- 0 915.4 1.1 99
2019-10-16 09:00:00 2.5 -- -- -- -- 0 914.8 0.6 99
2019-10-16 08:00:00 2.7 -- -- -- -- 0 914.5 0 99
2019-10-16 07:00:00 2.7 -- -- -- -- 0 914.3 -0.3 99
2019-10-16 06:00:00 3.4 -- -- -- -- 0 914.2 -1 99
2019-10-16 05:00:00 3.8 -- -- -- -- 0 914.5 -1 99
2019-10-16 04:00:00 4.7 -- -- -- -- 0 914.6 -1 99
2019-10-16 03:00:00 5.2 -- -- -- -- 0 915.2 -0.6 99
2019-10-16 02:00:00 4.5 -- -- -- -- 0 915.5 -0.2 99
2019-10-16 01:00:00 4.9 -- -- -- -- 0 915.6 0.7 99
2019-10-16 00:00:00 5 -- -- -- -- 0 915.8 1.2 99
2019-10-15 23:00:00 5.6 -- -- -- -- 0 915.7 1.6 99
2019-10-15 22:00:00 6.4 -- -- -- -- 0 914.9 1.2 99
2019-10-15 21:00:00 7.4 -- -- -- -- 0 914.6 1.3 99
2019-10-15 20:00:00 8.8 -- -- -- -- 0 914.1 1 99
2019-10-15 19:00:00 11.8 -- -- -- -- 0 913.7 0.4 91
2019-10-15 18:00:00 14.6 -- -- -- -- 0 913.3 -0.3 72
2019-10-15 17:00:00 15.3 -- -- -- -- 0 913.1 -1 68
2019-10-15 16:00:00 16.6 -- -- -- -- 0 913.3 -1 66
2019-10-15 15:00:00 14.9 -- -- -- -- 0 913.6 -0.8 71
2019-10-15 14:00:00 13.8 -- -- -- -- 0 914.1 -0.6 74
2019-10-15 13:00:00 14 -- -- -- -- 0 914.3 0.2 77
2019-10-15 12:00:00 12.4 -- -- -- -- 0 914.4 1 86
2019-10-15 11:00:00 9.4 -- -- -- -- 0 914.7 2.1 99
2019-10-15 10:00:00 4.1 -- -- -- -- 0 914.1 1.8 99
2019-10-15 09:00:00 2.8 -- -- -- -- 0 913.4 1.5 99
2019-10-15 08:00:00 3.3 -- -- -- -- 0 912.6 0.9 99
2019-10-15 07:00:00 4.5 -- -- -- -- 0 912.3 0.8 99
2019-10-15 06:00:00 5.4 -- -- -- -- 0 911.9 0.6 99
2019-10-15 05:00:00 5.5 -- -- -- -- 0 911.7 0.5 99
2019-10-15 04:00:00 6.6 -- -- -- -- 0 911.5 0.8 99
2019-10-15 03:00:00 8.2 -- -- -- -- 0.1 911.3 1 99
2019-10-15 02:00:00 9.5 -- -- -- -- 0 911.2 1.2 99
2019-10-15 01:00:00 10 -- -- -- -- 0 910.7 1.1 99
2019-10-15 00:00:00 9.9 -- -- -- -- 0 910.3 0.8 99
2019-10-14 23:00:00 9.8 -- -- -- -- 0.1 910 2.2 99
2019-10-14 22:00:00 9.8 -- -- -- -- 0.6 909.6 2.5 99
2019-10-14 21:00:00 12.2 -- -- -- -- 0 909.5 2.9 99
2019-10-14 20:00:00 15.7 -- -- -- -- 0 907.8 1 78
2019-10-14 19:00:00 16.8 -- -- -- -- 0 907.1 0 81
2019-10-14 18:00:00 17.4 -- -- -- -- 0 906.6 0.4 90
2019-10-14 17:00:00 17.4 -- -- -- -- 0 906.8 -0.5 99
2019-10-14 16:00:00 16.4 -- -- -- -- 0.5 907.1 -0.7 99
2019-10-14 15:00:00 19 -- -- -- -- 0 906.2 -- 99
2019-10-14 14:00:00 14.7 -- -- -- -- 3.4 907.3 -1.8 99
2019-10-14 13:00:00 18.2 -- -- -- -- 0 907.8 -1.5 99
2019-10-14 12:00:00 -- -- -- -- -- -- -- -- --
2019-10-14 11:00:00 14.3 -- -- -- -- 0.4 909.1 2.4 99
2019-10-14 10:00:00 15 -- -- -- -- 0 909.3 2.8 99
2019-10-14 09:00:00 17.8 -- -- -- -- 0 907.4 0.3 93
2019-10-14 08:00:00 17.8 -- -- -- -- 0 906.7 -0.2 92
2019-10-14 07:00:00 18.4 -- -- -- -- 0 906.5 -0.8 92
2019-10-14 06:00:00 14.4 -- -- -- -- 0 907.1 -1.7 99
2019-10-14 05:00:00 12.2 -- -- -- -- 0 906.9 -2.9 99
2019-10-14 04:00:00 8.5 -- -- -- -- 0 907.3 -3.1 99
2019-10-14 03:00:00 8.5 -- -- -- -- 0 908.8 -2.1 99
2019-10-14 02:00:00 8.9 -- -- -- -- 0 909.8 -1 99
2019-10-14 01:00:00 9.6 -- -- -- -- 0 910.4 -0.3 99
2019-10-14 00:00:00 10.5 -- -- -- -- 0 910.9 0.3 99